createdAt,value
2018-10-11T00:00:35.320Z,13.26
2018-10-11T00:03:02.253Z,13.25
2018-10-11T00:05:29.165Z,13.18
2018-10-11T00:07:56.086Z,13.17
2018-10-11T00:10:22.998Z,13.12
2018-10-11T00:12:49.935Z,13.11
2018-10-11T00:15:16.853Z,13.05
2018-10-11T00:17:43.769Z,13.04
2018-10-11T00:20:10.784Z,13.01
2018-10-11T00:22:37.601Z,13.00
2018-10-11T00:25:04.529Z,12.97
2018-10-11T00:27:31.446Z,12.94
2018-10-11T00:29:58.360Z,12.94
2018-10-11T00:32:25.270Z,12.91
2018-10-11T00:34:52.205Z,12.87
2018-10-11T00:37:19.120Z,12.85
2018-10-11T00:39:46.040Z,12.83
2018-10-11T00:42:12.974Z,12.81
2018-10-11T00:44:39.931Z,12.77
2018-10-11T00:47:07.107Z,12.71
2018-10-11T00:49:34.064Z,12.70
2018-10-11T00:52:00.974Z,12.67
2018-10-11T00:54:27.901Z,12.62
2018-10-11T00:56:54.835Z,12.60
2018-10-11T00:59:21.758Z,12.54
2018-10-11T01:01:48.662Z,12.52
2018-10-11T01:04:15.601Z,12.46
2018-10-11T01:06:42.531Z,12.47
2018-10-11T01:09:10.796Z,12.48
2018-10-11T01:11:37.694Z,12.47
2018-10-11T01:14:04.653Z,12.47
2018-10-11T01:16:31.586Z,12.39
2018-10-11T01:18:58.525Z,12.37
2018-10-11T01:21:25.466Z,12.37
2018-10-11T01:23:52.441Z,12.38
2018-10-11T01:26:19.362Z,12.37
2018-10-11T01:28:53.125Z,12.37
2018-10-11T01:31:21.959Z,12.30
2018-10-11T01:33:48.965Z,12.32
2018-10-11T01:36:15.909Z,12.35
2018-10-11T01:38:43.026Z,12.37
2018-10-11T01:41:10.029Z,12.34
2018-10-11T01:43:37.002Z,12.37
2018-10-11T01:46:03.962Z,12.43
2018-10-11T01:48:30.902Z,12.43
2018-10-11T01:50:57.837Z,12.47
2018-10-11T01:53:24.777Z,12.50
2018-10-11T01:55:51.755Z,12.53
2018-10-11T01:58:18.689Z,12.55
2018-10-11T02:00:45.630Z,12.55
2018-10-11T02:03:12.544Z,12.56
2018-10-11T02:05:39.469Z,12.60
2018-10-11T02:08:06.410Z,12.63
2018-10-11T02:10:33.341Z,12.66
2018-10-11T02:13:00.257Z,12.64
2018-10-11T02:15:27.834Z,12.61
2018-10-11T02:17:54.981Z,12.63
2018-10-11T02:20:21.912Z,12.64
2018-10-11T02:22:48.837Z,12.63
2018-10-11T02:25:15.777Z,12.64
2018-10-11T02:27:42.718Z,12.59
2018-10-11T02:30:10.539Z,12.57
2018-10-11T02:32:37.457Z,12.55
2018-10-11T02:35:04.423Z,12.56
2018-10-11T02:37:31.384Z,12.54
2018-10-11T02:39:58.317Z,12.56
2018-10-11T02:42:25.957Z,12.54
2018-10-11T02:44:52.898Z,12.55
2018-10-11T02:47:19.813Z,12.51
2018-10-11T02:49:46.741Z,12.50
2018-10-11T02:52:13.671Z,12.47
2018-10-11T02:54:40.645Z,12.49
2018-10-11T02:57:17.922Z,12.52
2018-10-11T02:59:44.902Z,12.51
2018-10-11T03:02:13.334Z,12.54
2018-10-11T03:04:41.477Z,12.59
2018-10-11T03:07:09.298Z,12.58
2018-10-11T03:09:36.240Z,12.58
2018-10-11T03:12:03.179Z,12.61
2018-10-11T03:14:30.105Z,12.61
2018-10-11T03:16:57.021Z,12.51
2018-10-11T03:19:23.941Z,12.58
2018-10-11T03:21:50.882Z,12.58
2018-10-11T03:24:17.841Z,12.59
2018-10-11T03:26:44.753Z,12.66
2018-10-11T03:29:11.672Z,12.62
2018-10-11T03:31:38.607Z,12.56
2018-10-11T03:34:05.581Z,12.57
2018-10-11T03:36:32.522Z,12.53
2018-10-11T03:38:59.440Z,12.54
2018-10-11T03:41:26.352Z,12.53
2018-10-11T03:43:53.308Z,12.50
2018-10-11T03:46:20.283Z,12.54
2018-10-11T03:48:47.164Z,12.53
2018-10-11T03:51:14.084Z,12.48
2018-10-11T03:53:41.020Z,12.50
2018-10-11T03:56:07.957Z,12.47
2018-10-11T03:58:34.894Z,12.47
2018-10-11T04:01:01.812Z,12.46
2018-10-11T04:03:28.743Z,12.45
2018-10-11T04:05:55.673Z,12.45
2018-10-11T04:08:22.590Z,12.45
2018-10-11T04:10:49.520Z,12.40
2018-10-11T04:13:16.445Z,12.39
2018-10-11T04:15:43.529Z,12.39
2018-10-11T04:18:10.339Z,12.33
2018-10-11T04:20:37.289Z,12.29
2018-10-11T04:23:04.217Z,12.32
2018-10-11T04:25:31.168Z,12.29
2018-10-11T04:27:58.119Z,12.30
2018-10-11T04:30:25.476Z,12.27
2018-10-11T04:32:52.393Z,12.24
2018-10-11T04:35:19.349Z,12.24
2018-10-11T04:37:46.266Z,12.23
2018-10-11T04:40:13.200Z,12.19
2018-10-11T04:42:40.123Z,12.17
2018-10-11T04:45:07.137Z,12.15
2018-10-11T04:47:34.059Z,12.13
2018-10-11T04:50:00.989Z,12.11
2018-10-11T04:52:27.938Z,12.09
2018-10-11T04:54:54.853Z,12.07
2018-10-11T04:57:21.789Z,12.05
2018-10-11T04:59:48.767Z,11.96
2018-10-11T05:02:15.657Z,11.99
2018-10-11T05:04:42.582Z,11.96
2018-10-11T05:07:09.605Z,11.94
2018-10-11T05:09:36.545Z,11.94
2018-10-11T05:12:03.486Z,11.90
2018-10-11T05:14:30.646Z,11.90
2018-10-11T05:16:57.601Z,11.87
2018-10-11T05:19:24.552Z,11.86
2018-10-11T05:21:51.488Z,11.83
2018-10-11T05:24:18.424Z,11.84
2018-10-11T05:26:45.364Z,11.85
2018-10-11T05:29:12.277Z,11.82
2018-10-11T05:31:39.237Z,11.78
2018-10-11T05:34:06.642Z,11.78
2018-10-11T05:36:33.572Z,11.74
2018-10-11T05:39:00.490Z,11.71
2018-10-11T05:41:27.437Z,11.69
2018-10-11T05:43:54.414Z,11.65
2018-10-11T05:46:24.660Z,11.61
2018-10-11T05:48:51.679Z,11.59
2018-10-11T05:51:19.389Z,11.58
2018-10-11T05:53:47.000Z,11.58
2018-10-11T05:56:14.285Z,11.54
2018-10-11T05:58:41.263Z,11.53
2018-10-11T06:01:08.209Z,11.50
2018-10-11T06:03:35.176Z,11.51
2018-10-11T06:06:02.114Z,11.53
2018-10-11T06:08:29.089Z,11.54
2018-10-11T06:10:56.029Z,11.55
2018-10-11T06:13:22.988Z,11.51
2018-10-11T06:15:49.940Z,11.51
2018-10-11T06:18:16.884Z,11.51
2018-10-11T06:20:43.818Z,11.52
2018-10-11T06:23:10.770Z,11.53
2018-10-11T06:25:37.727Z,11.55
2018-10-11T06:28:05.228Z,11.59
2018-10-11T06:30:32.743Z,11.58
2018-10-11T06:32:59.798Z,11.59
2018-10-11T06:35:27.097Z,11.64
2018-10-11T06:37:54.033Z,11.66
2018-10-11T06:40:20.989Z,11.72
2018-10-11T06:42:47.992Z,11.75
2018-10-11T06:45:15.337Z,11.82
2018-10-11T06:47:43.548Z,11.88
2018-10-11T06:50:10.508Z,11.89
2018-10-11T06:52:37.811Z,12.00
2018-10-11T06:55:05.506Z,12.06
2018-10-11T06:57:32.417Z,12.07
2018-10-11T06:59:59.361Z,12.18
2018-10-11T07:02:26.293Z,12.25
2018-10-11T07:04:53.223Z,12.33
2018-10-11T07:07:20.205Z,12.43
2018-10-11T07:09:47.098Z,12.51
2018-10-11T07:12:14.002Z,12.59
2018-10-11T07:14:40.909Z,12.70
2018-10-11T07:17:07.817Z,12.81
2018-10-11T07:19:34.734Z,12.93
2018-10-11T07:22:01.665Z,13.01
2018-10-11T07:24:28.589Z,13.13
2018-10-11T07:26:55.483Z,13.28
2018-10-11T07:29:22.401Z,13.35
2018-10-11T07:31:49.316Z,13.53
2018-10-11T07:34:16.229Z,13.67
2018-10-11T07:36:43.156Z,13.80
2018-10-11T07:39:11.549Z,13.91
2018-10-11T07:41:38.465Z,14.02
2018-10-11T07:44:05.849Z,14.13
2018-10-11T07:46:32.751Z,14.23
2018-10-11T07:48:59.665Z,14.34
2018-10-11T07:51:26.611Z,14.38
2018-10-11T07:53:58.090Z,14.48
2018-10-11T07:56:25.021Z,14.56
2018-10-11T07:58:51.920Z,14.70
2018-10-11T08:01:18.896Z,14.80
2018-10-11T08:03:45.762Z,14.86
2018-10-11T08:06:12.660Z,14.98
2018-10-11T08:08:39.573Z,15.06
2018-10-11T08:11:06.952Z,15.17
2018-10-11T08:13:33.860Z,15.24
2018-10-11T08:16:00.804Z,15.29
2018-10-11T08:18:27.690Z,15.23
2018-10-11T08:20:54.604Z,15.24
2018-10-11T08:23:21.526Z,15.42
2018-10-11T08:25:48.915Z,15.44
2018-10-11T08:28:15.373Z,15.46
2018-10-11T08:30:42.279Z,15.48
2018-10-11T08:33:09.224Z,15.54
2018-10-11T08:35:36.218Z,15.62
2018-10-11T08:38:03.489Z,15.69
2018-10-11T08:40:30.505Z,15.68
2018-10-11T08:42:58.063Z,15.71
2018-10-11T08:45:26.196Z,15.74
2018-10-11T08:47:53.298Z,15.76
2018-10-11T08:50:20.450Z,15.82
2018-10-11T08:52:47.509Z,15.86
2018-10-11T08:55:14.591Z,16.00
2018-10-11T08:57:41.618Z,16.21
2018-10-11T09:00:09.050Z,16.43
2018-10-11T09:02:36.077Z,16.43
2018-10-11T09:05:03.189Z,16.47
2018-10-11T09:07:30.178Z,16.60
2018-10-11T09:09:57.195Z,16.87
2018-10-11T09:12:24.208Z,16.95
2018-10-11T09:14:51.247Z,16.92
2018-10-11T09:17:18.320Z,16.98
2018-10-11T09:19:45.331Z,17.18
2018-10-11T09:22:12.333Z,17.42
2018-10-11T09:24:39.340Z,17.56
2018-10-11T09:27:06.401Z,17.48
2018-10-11T09:29:33.521Z,17.47
2018-10-11T09:32:00.549Z,17.49
2018-10-11T09:34:27.587Z,17.48
2018-10-11T09:36:54.616Z,17.53
2018-10-11T09:39:21.550Z,17.69
2018-10-11T09:41:48.522Z,17.78
2018-10-11T09:44:15.490Z,17.91
2018-10-11T09:46:42.470Z,18.01
2018-10-11T09:49:09.623Z,18.49
2018-10-11T09:51:36.627Z,18.74
2018-10-11T09:54:03.696Z,18.77
2018-10-11T09:56:42.449Z,18.58
2018-10-11T09:59:09.570Z,18.66
2018-10-11T10:01:45.143Z,18.42
2018-10-11T10:04:12.243Z,18.57
2018-10-11T10:06:39.276Z,18.71
2018-10-11T10:09:07.648Z,18.69
2018-10-11T10:11:34.933Z,18.93
2018-10-11T10:14:01.996Z,18.97
2018-10-11T10:16:29.337Z,19.01
2018-10-11T10:18:56.312Z,19.27
2018-10-11T10:21:23.414Z,19.32
2018-10-11T10:23:50.401Z,19.43
2018-10-11T10:26:17.434Z,19.30
2018-10-11T10:28:44.452Z,19.37
2018-10-11T10:31:11.634Z,19.29
2018-10-11T10:33:38.671Z,19.49
2018-10-11T10:36:05.731Z,19.69
2018-10-11T10:38:32.770Z,19.66
2018-10-11T10:40:59.764Z,19.71
2018-10-11T10:43:26.800Z,19.84
2018-10-11T10:45:53.834Z,19.73
2018-10-11T10:48:20.841Z,19.84
2018-10-11T10:50:47.876Z,20.05
2018-10-11T10:53:15.031Z,20.12
2018-10-11T10:55:42.071Z,20.28
2018-10-11T10:58:09.082Z,20.30
2018-10-11T11:00:36.128Z,20.36
2018-10-11T11:03:09.868Z,20.30
2018-10-11T11:05:36.786Z,20.15
2018-10-11T11:08:03.692Z,20.46
2018-10-11T11:10:30.604Z,20.67
2018-10-11T11:12:57.501Z,20.78
2018-10-11T11:15:24.424Z,20.78
2018-10-11T11:17:51.343Z,20.79
2018-10-11T11:20:18.251Z,20.85
2018-10-11T11:22:45.176Z,20.86
2018-10-11T11:25:12.132Z,21.03
2018-10-11T11:27:39.043Z,21.11
2018-10-11T11:30:06.178Z,20.96
2018-10-11T11:32:33.208Z,20.75
2018-10-11T11:35:00.117Z,20.59
2018-10-11T11:37:27.018Z,20.66
2018-10-11T11:39:53.957Z,20.96
2018-10-11T11:42:20.934Z,21.13
2018-10-11T11:44:47.856Z,21.25
2018-10-11T11:47:14.749Z,21.35
2018-10-11T11:49:41.653Z,21.34
2018-10-11T11:52:08.611Z,21.30
2018-10-11T11:54:35.490Z,21.38
2018-10-11T11:57:02.397Z,21.32
2018-10-11T11:59:29.314Z,21.30
2018-10-11T12:01:56.249Z,21.41
2018-10-11T12:04:23.160Z,21.38
2018-10-11T12:06:50.094Z,21.52
2018-10-11T12:09:16.993Z,21.43
2018-10-11T12:11:43.937Z,21.20
2018-10-11T12:14:10.840Z,21.19
2018-10-11T12:16:38.188Z,21.21
2018-10-11T12:19:05.783Z,21.46
2018-10-11T12:21:32.729Z,21.51
2018-10-11T12:23:59.630Z,21.48
2018-10-11T12:26:26.538Z,21.77
2018-10-11T12:28:53.538Z,21.97
2018-10-11T12:31:20.390Z,21.91
2018-10-11T12:33:47.672Z,21.99
2018-10-11T12:36:14.595Z,22.15
2018-10-11T12:38:41.591Z,22.28
2018-10-11T12:41:08.505Z,22.25
2018-10-11T12:43:35.409Z,22.15
2018-10-11T12:46:02.348Z,22.46
2018-10-11T12:48:29.278Z,22.33
2018-10-11T12:50:56.226Z,22.13
2018-10-11T12:53:23.151Z,22.17
2018-10-11T12:55:50.073Z,22.21
2018-10-11T12:58:16.984Z,22.21
2018-10-11T13:00:43.967Z,22.07
2018-10-11T13:03:10.909Z,22.19
2018-10-11T13:05:37.897Z,22.14
2018-10-11T13:08:04.834Z,22.06
2018-10-11T13:10:31.732Z,22.11
2018-10-11T13:12:59.719Z,22.29
2018-10-11T13:15:25.596Z,22.43
2018-10-11T13:17:52.513Z,22.43
2018-10-11T13:20:19.432Z,22.39
2018-10-11T13:22:46.433Z,22.16
2018-10-11T13:25:13.313Z,22.17
2018-10-11T13:27:40.261Z,22.01
2018-10-11T13:30:07.205Z,21.87
2018-10-11T13:32:34.130Z,21.87
2018-10-11T13:35:01.081Z,21.75
2018-10-11T13:37:28.000Z,21.69
2018-10-11T13:39:57.689Z,21.55
2018-10-11T13:42:21.878Z,21.56
2018-10-11T13:44:48.801Z,21.57
2018-10-11T13:47:15.733Z,21.54
2018-10-11T13:49:42.660Z,21.50
2018-10-11T13:52:14.469Z,21.42
2018-10-11T13:54:36.525Z,21.38
2018-10-11T13:57:03.488Z,21.31
2018-10-11T13:59:30.437Z,21.31
2018-10-11T14:01:57.500Z,21.17
2018-10-11T14:04:24.438Z,21.12
2018-10-11T14:06:51.342Z,21.05
2018-10-11T14:09:18.269Z,21.04
2018-10-11T14:11:45.674Z,21.03
2018-10-11T14:14:12.707Z,21.07
2018-10-11T14:16:39.705Z,20.99
2018-10-11T14:19:06.730Z,20.90
2018-10-11T14:21:33.704Z,20.89
2018-10-11T14:24:00.744Z,20.87
2018-10-11T14:26:28.215Z,20.80
2018-10-11T14:28:55.280Z,20.74
2018-10-11T14:31:24.889Z,20.68
2018-10-11T14:33:55.084Z,20.63
2018-10-11T14:36:25.747Z,20.74
2018-10-11T14:38:55.564Z,20.71
2018-10-11T14:41:24.666Z,20.62
2018-10-11T14:43:51.593Z,20.55
2018-10-11T14:46:18.619Z,20.56
2018-10-11T14:48:45.664Z,20.51
2018-10-11T14:51:12.761Z,20.45
2018-10-11T14:53:39.860Z,20.39
2018-10-11T14:56:06.877Z,20.39
2018-10-11T14:58:33.854Z,20.38
2018-10-11T15:01:00.793Z,20.46
2018-10-11T15:03:27.688Z,20.33
2018-10-11T15:05:54.810Z,20.24
2018-10-11T15:08:21.605Z,20.20
2018-10-11T15:10:48.524Z,20.17
2018-10-11T15:13:15.442Z,20.06
2018-10-11T15:15:42.395Z,20.01
2018-10-11T15:18:09.273Z,19.97
2018-10-11T15:20:36.206Z,19.89
2018-10-11T15:23:03.153Z,19.84
2018-10-11T15:25:30.154Z,19.74
2018-10-11T15:27:57.041Z,19.72
2018-10-11T15:30:23.956Z,19.69
2018-10-11T15:32:50.868Z,19.63
2018-10-11T15:35:17.789Z,19.54
2018-10-11T15:37:44.714Z,19.47
2018-10-11T15:40:11.641Z,19.40
2018-10-11T15:42:38.610Z,19.32
2018-10-11T15:45:06.814Z,19.23
2018-10-11T15:47:33.764Z,19.16
2018-10-11T15:50:02.435Z,19.14
2018-10-11T15:52:29.500Z,19.09
2018-10-11T15:54:56.396Z,19.02
2018-10-11T15:57:23.374Z,18.96
2018-10-11T15:59:50.350Z,18.84
2018-10-11T16:02:17.270Z,18.72
2018-10-11T16:04:44.206Z,18.61
2018-10-11T16:07:11.129Z,18.51
2018-10-11T16:09:38.049Z,18.43
2018-10-11T16:12:05.047Z,18.37
2018-10-11T16:14:31.991Z,18.26
2018-10-11T16:16:58.933Z,18.15
2018-10-11T16:19:26.025Z,17.98
2018-10-11T16:21:52.986Z,17.92
2018-10-11T16:24:19.910Z,17.93
2018-10-11T16:26:46.863Z,17.99
2018-10-11T16:29:13.788Z,17.93
2018-10-11T16:31:40.739Z,17.86
2018-10-11T16:34:08.157Z,17.77
2018-10-11T16:36:35.135Z,17.61
2018-10-11T16:39:02.122Z,17.49
2018-10-11T16:41:29.053Z,17.42
2018-10-11T16:43:55.990Z,17.32
2018-10-11T16:46:22.917Z,17.26
2018-10-11T16:48:49.863Z,17.15
2018-10-11T16:51:16.808Z,17.05
2018-10-11T16:53:43.765Z,16.97
2018-10-11T16:56:10.729Z,16.85
2018-10-11T16:58:37.703Z,16.72
2018-10-11T17:01:04.622Z,16.58
2018-10-11T17:03:31.581Z,16.39
2018-10-11T17:05:58.515Z,16.25
2018-10-11T17:08:25.465Z,16.15
2018-10-11T17:10:52.426Z,16.03
2018-10-11T17:13:19.369Z,15.92
2018-10-11T17:15:46.305Z,15.82
2018-10-11T17:18:13.555Z,15.76
2018-10-11T17:20:40.496Z,15.69
2018-10-11T17:23:07.439Z,15.62
2018-10-11T17:25:34.361Z,15.58
2018-10-11T17:28:01.283Z,15.57
2018-10-11T17:30:28.210Z,15.52
2018-10-11T17:32:55.125Z,15.46
2018-10-11T17:35:22.103Z,15.36
2018-10-11T17:37:49.014Z,15.29
2018-10-11T17:40:15.958Z,15.17
2018-10-11T17:42:43.185Z,15.06
2018-10-11T17:45:10.145Z,14.96
2018-10-11T17:47:37.109Z,14.88
2018-10-11T17:50:04.397Z,14.90
2018-10-11T17:52:31.292Z,14.86
2018-10-11T17:54:58.438Z,14.87
2018-10-11T17:57:26.005Z,14.82
2018-10-11T17:59:52.976Z,14.82
2018-10-11T18:02:21.129Z,14.74
2018-10-11T18:04:48.474Z,14.69
2018-10-11T18:07:15.501Z,14.70
2018-10-11T18:09:42.429Z,14.71
2018-10-11T18:12:09.368Z,14.68
2018-10-11T18:14:36.283Z,14.55
2018-10-11T18:17:03.197Z,14.45
2018-10-11T18:19:30.133Z,14.33
2018-10-11T18:21:57.133Z,14.29
2018-10-11T18:24:24.063Z,14.22
2018-10-11T18:26:51.097Z,14.10
2018-10-11T18:29:18.090Z,14.13
2018-10-11T18:31:45.001Z,14.09
2018-10-11T18:34:11.973Z,14.05
2018-10-11T18:36:38.885Z,13.98
2018-10-11T18:39:09.027Z,13.89
2018-10-11T18:41:35.996Z,13.84
2018-10-11T18:44:02.928Z,13.84
2018-10-11T18:46:29.841Z,13.81
2018-10-11T18:48:56.773Z,13.84
2018-10-11T18:51:23.685Z,13.79
2018-10-11T18:53:50.617Z,13.71
2018-10-11T18:56:17.608Z,13.60
2018-10-11T18:58:45.243Z,13.57
2018-10-11T19:01:12.149Z,13.60
2018-10-11T19:03:39.094Z,13.64
2018-10-11T19:06:06.021Z,13.57
2018-10-11T19:08:32.941Z,13.58
2018-10-11T19:11:00.468Z,13.55
2018-10-11T19:13:27.422Z,13.45
2018-10-11T19:15:54.346Z,13.42
2018-10-11T19:18:21.253Z,13.37
2018-10-11T19:20:48.280Z,13.39
2018-10-11T19:23:15.213Z,13.41
2018-10-11T19:25:43.499Z,13.32
2018-10-11T19:28:10.433Z,13.23
2018-10-11T19:30:37.936Z,13.17
2018-10-11T19:33:05.492Z,13.14
2018-10-11T19:35:32.551Z,13.10
2018-10-11T19:37:59.465Z,13.04
2018-10-11T19:40:26.395Z,12.95
2018-10-11T19:42:53.423Z,12.91
2018-10-11T19:45:20.444Z,12.83
2018-10-11T19:47:47.383Z,12.77
2018-10-11T19:50:14.337Z,12.70
2018-10-11T19:52:41.350Z,12.62
2018-10-11T19:55:08.409Z,12.54
2018-10-11T19:57:35.374Z,12.48
2018-10-11T20:00:02.368Z,12.42
2018-10-11T20:02:29.356Z,12.40
2018-10-11T20:04:56.283Z,12.36
2018-10-11T20:07:24.251Z,12.33
2018-10-11T20:09:51.205Z,12.24
2018-10-11T20:12:18.113Z,12.18
2018-10-11T20:14:45.095Z,12.15
2018-10-11T20:17:12.307Z,12.08
2018-10-11T20:19:39.262Z,12.06
2018-10-11T20:22:08.090Z,12.01
2018-10-11T20:24:35.037Z,11.91
2018-10-11T20:27:02.442Z,11.86
2018-10-11T20:29:29.809Z,11.82
2018-10-11T20:31:56.781Z,11.81
2018-10-11T20:34:23.725Z,11.74
2018-10-11T20:36:50.679Z,11.73
2018-10-11T20:39:17.603Z,11.71
2018-10-11T20:41:44.522Z,11.65
2018-10-11T20:44:11.466Z,11.65
2018-10-11T20:46:38.394Z,11.60
2018-10-11T20:49:05.321Z,11.55
2018-10-11T20:51:32.282Z,11.54
2018-10-11T20:53:59.172Z,11.53
2018-10-11T20:56:26.203Z,11.48
2018-10-11T20:58:53.177Z,11.43
2018-10-11T21:01:20.103Z,11.38
2018-10-11T21:03:47.042Z,11.32
2018-10-11T21:06:13.979Z,11.27
2018-10-11T21:08:40.911Z,11.27
2018-10-11T21:11:07.850Z,11.24
2018-10-11T21:13:34.781Z,11.20
2018-10-11T21:16:01.693Z,11.15
2018-10-11T21:18:28.629Z,11.14
2018-10-11T21:20:55.559Z,11.09
2018-10-11T21:23:22.487Z,11.09
2018-10-11T21:25:49.412Z,11.05
2018-10-11T21:28:16.401Z,11.03
2018-10-11T21:30:43.256Z,11.03
2018-10-11T21:33:10.233Z,11.01
2018-10-11T21:35:37.221Z,11.01
2018-10-11T21:38:04.476Z,10.96
2018-10-11T21:40:31.418Z,10.93
2018-10-11T21:42:58.337Z,10.96
2018-10-11T21:45:25.277Z,10.93
2018-10-11T21:47:52.204Z,10.87
2018-10-11T21:50:19.145Z,10.84
2018-10-11T21:52:46.109Z,10.78
2018-10-11T21:55:13.055Z,10.72
2018-10-11T21:57:39.980Z,10.70
2018-10-11T22:00:07.023Z,10.67
2018-10-11T22:02:33.953Z,10.64
2018-10-11T22:05:00.901Z,10.63
2018-10-11T22:07:27.843Z,10.61
2018-10-11T22:09:54.813Z,10.56
2018-10-11T22:12:21.865Z,10.55
2018-10-11T22:14:48.864Z,10.51
2018-10-11T22:17:15.776Z,10.52
2018-10-11T22:19:43.652Z,10.59
2018-10-11T22:22:10.607Z,10.61
2018-10-11T22:24:37.538Z,10.67
2018-10-11T22:27:04.485Z,10.69
2018-10-11T22:29:32.437Z,10.69
2018-10-11T22:32:07.377Z,10.74
2018-10-11T22:34:35.553Z,10.79
2018-10-11T22:37:02.554Z,10.78
2018-10-11T22:39:29.573Z,10.80
2018-10-11T22:41:56.621Z,10.77
2018-10-11T22:44:23.617Z,10.82
2018-10-11T22:46:50.599Z,10.95
2018-10-11T22:49:17.580Z,11.04
2018-10-11T22:51:44.525Z,11.12
2018-10-11T22:54:11.493Z,11.14
2018-10-11T22:56:48.365Z,11.24
2018-10-11T22:59:15.305Z,11.33
2018-10-11T23:01:42.269Z,11.39
2018-10-11T23:04:09.221Z,11.44
2018-10-11T23:06:36.167Z,11.40
2018-10-11T23:09:04.332Z,11.40
2018-10-11T23:11:31.270Z,11.42
2018-10-11T23:13:58.186Z,11.46
2018-10-11T23:16:25.151Z,11.46
2018-10-11T23:18:52.070Z,11.54
2018-10-11T23:21:19.060Z,11.53
2018-10-11T23:23:45.989Z,11.55
2018-10-11T23:26:12.926Z,11.57
2018-10-11T23:28:40.397Z,11.57
2018-10-11T23:31:07.633Z,11.54
2018-10-11T23:33:34.580Z,11.55
2018-10-11T23:36:01.549Z,11.57
2018-10-11T23:38:28.504Z,11.58
2018-10-11T23:40:55.437Z,11.60
2018-10-11T23:43:22.389Z,11.56
2018-10-11T23:45:49.320Z,11.54
2018-10-11T23:48:16.256Z,11.52
2018-10-11T23:50:43.180Z,11.54
2018-10-11T23:53:10.122Z,11.61
2018-10-11T23:55:37.074Z,11.63
2018-10-11T23:58:04.216Z,11.63
